CheckWX is a tool to help pilots better visualize weather data.  It is not intended as a substitute for an official pre-flight weather briefing.

21:35:16 UTC

OPKC METAR
Jinnah International Airport
Karachi, Pakistan
Current

9 mins ago

OPKC 232126Z 28007KT 5000 HZ SCT100 21/12 Q1014 NOSIG
Observed
Feb-23 @ 21:26 UTC
Wind
  • 280° at 7 KTS
Visibility
5,005 meters
Flight Rules
MVFR
Conditions
Haze
Cloud Levels
  • Scattered at 10,000' AGL
Temperature
21°C / 70°F
Dewpoint
12°C / 54°F
Humidity
57%
Altimeter
29.94" Hg
Pressure
1013.92 hPa
Previous

38 mins ago

OPKC 232057Z 28008KT 5000 HZ NSC 21/12 Q1014 NOSIG
Observed
Feb-23 @ 20:57 UTC
Wind
  • 280° at 8 KTS
Visibility
5,005 meters
Flight Rules
MVFR
Conditions
Haze
Cloud Levels
  • Clear skies
Temperature
21°C / 70°F
Dewpoint
12°C / 54°F
Humidity
57%
Altimeter
29.94" Hg
Pressure
1013.92 hPa
Previous

1 hour ago

OPKC 232022Z 28008KT 5000 HZ NSC 21/13 Q1014 NOSIG
Observed
Feb-23 @ 20:22 UTC
Wind
  • 280° at 8 KTS
Visibility
5,005 meters
Flight Rules
MVFR
Conditions
Haze
Cloud Levels
  • Clear skies
Temperature
21°C / 70°F
Dewpoint
13°C / 55°F
Humidity
60%
Altimeter
29.94" Hg
Pressure
1013.92 hPa